sensor_id;sensor_type;location;lat;lon;timestamp;P1;durP1;ratioP1;P2;durP2;ratioP2
62911;SDS011;49111;51.028;4.218;2022-08-23T00:01:31;13.27;;;7.80;;
62911;SDS011;49111;51.028;4.218;2022-08-23T00:03:59;11.23;;;6.53;;
62911;SDS011;49111;51.028;4.218;2022-08-23T00:06:34;11.10;;;6.57;;
62911;SDS011;49111;51.028;4.218;2022-08-23T00:09:00;13.70;;;7.03;;
62911;SDS011;49111;51.028;4.218;2022-08-23T00:11:33;11.93;;;6.80;;
62911;SDS011;49111;51.028;4.218;2022-08-23T00:14:06;11.13;;;6.93;;
62911;SDS011;49111;51.028;4.218;2022-08-23T00:16:35;15.57;;;8.60;;
62911;SDS011;49111;51.028;4.218;2022-08-23T00:19:05;11.90;;;8.02;;
62911;SDS011;49111;51.028;4.218;2022-08-23T00:21:33;13.48;;;7.70;;
62911;SDS011;49111;51.028;4.218;2022-08-23T00:24:00;15.38;;;7.53;;
62911;SDS011;49111;51.028;4.218;2022-08-23T00:26:27;17.67;;;7.47;;
62911;SDS011;49111;51.028;4.218;2022-08-23T00:29:25;10.13;;;6.55;;
62911;SDS011;49111;51.028;4.218;2022-08-23T00:31:53;11.20;;;7.28;;
62911;SDS011;49111;51.028;4.218;2022-08-23T00:34:20;12.70;;;7.22;;
62911;SDS011;49111;51.028;4.218;2022-08-23T00:36:46;10.85;;;6.68;;
62911;SDS011;49111;51.028;4.218;2022-08-23T00:39:13;11.88;;;7.68;;
62911;SDS011;49111;51.028;4.218;2022-08-23T00:41:39;14.45;;;9.82;;
62911;SDS011;49111;51.028;4.218;2022-08-23T00:44:06;11.90;;;8.20;;
62911;SDS011;49111;51.028;4.218;2022-08-23T00:47:10;14.55;;;7.97;;
62911;SDS011;49111;51.028;4.218;2022-08-23T00:50:00;14.00;;;7.82;;
62911;SDS011;49111;51.028;4.218;2022-08-23T00:52:43;15.02;;;8.95;;
62911;SDS011;49111;51.028;4.218;2022-08-23T00:55:15;14.30;;;8.20;;
62911;SDS011;49111;51.028;4.218;2022-08-23T00:57:42;10.93;;;6.50;;
62911;SDS011;49111;51.028;4.218;2022-08-23T01:00:08;11.77;;;7.35;;
62911;SDS011;49111;51.028;4.218;2022-08-23T01:02:35;13.40;;;8.10;;
62911;SDS011;49111;51.028;4.218;2022-08-23T01:05:04;16.17;;;8.13;;
62911;SDS011;49111;51.028;4.218;2022-08-23T01:07:37;12.02;;;7.80;;
62911;SDS011;49111;51.028;4.218;2022-08-23T01:13:10;11.95;;;7.55;;
62911;SDS011;49111;51.028;4.218;2022-08-23T01:18:12;13.60;;;9.40;;
62911;SDS011;49111;51.028;4.218;2022-08-23T01:20:52;18.88;;;10.18;;
62911;SDS011;49111;51.028;4.218;2022-08-23T01:26:04;11.43;;;7.70;;
62911;SDS011;49111;51.028;4.218;2022-08-23T01:28:33;16.40;;;8.77;;
62911;SDS011;49111;51.028;4.218;2022-08-23T01:30:59;13.65;;;8.98;;
62911;SDS011;49111;51.028;4.218;2022-08-23T01:33:26;16.40;;;8.95;;
62911;SDS011;49111;51.028;4.218;2022-08-23T01:35:53;11.90;;;8.20;;
62911;SDS011;49111;51.028;4.218;2022-08-23T01:38:22;12.60;;;7.03;;
62911;SDS011;49111;51.028;4.218;2022-08-23T01:40:49;12.88;;;7.88;;
62911;SDS011;49111;51.028;4.218;2022-08-23T01:43:15;11.93;;;7.50;;
62911;SDS011;49111;51.028;4.218;2022-08-23T01:45:46;12.40;;;8.30;;
62911;SDS011;49111;51.028;4.218;2022-08-23T01:48:13;15.73;;;8.13;;
62911;SDS011;49111;51.028;4.218;2022-08-23T01:50:40;12.10;;;8.18;;
62911;SDS011;49111;51.028;4.218;2022-08-23T01:53:06;14.95;;;8.73;;
62911;SDS011;49111;51.028;4.218;2022-08-23T01:55:33;12.43;;;8.15;;
62911;SDS011;49111;51.028;4.218;2022-08-23T01:58:00;10.95;;;6.93;;
62911;SDS011;49111;51.028;4.218;2022-08-23T02:00:29;10.57;;;7.43;;
62911;SDS011;49111;51.028;4.218;2022-08-23T02:03:00;13.07;;;8.40;;
62911;SDS011;49111;51.028;4.218;2022-08-23T02:05:27;11.75;;;7.28;;
62911;SDS011;49111;51.028;4.218;2022-08-23T02:07:53;11.50;;;7.50;;
62911;SDS011;49111;51.028;4.218;2022-08-23T02:10:19;10.50;;;7.57;;
62911;SDS011;49111;51.028;4.218;2022-08-23T02:12:48;15.25;;;7.43;;
62911;SDS011;49111;51.028;4.218;2022-08-23T02:15:15;11.25;;;7.55;;
62911;SDS011;49111;51.028;4.218;2022-08-23T02:17:45;14.23;;;8.30;;
62911;SDS011;49111;51.028;4.218;2022-08-23T02:20:11;13.60;;;9.20;;
62911;SDS011;49111;51.028;4.218;2022-08-23T02:22:38;14.35;;;9.00;;
62911;SDS011;49111;51.028;4.218;2022-08-23T02:25:04;19.00;;;10.07;;
62911;SDS011;49111;51.028;4.218;2022-08-23T02:27:31;16.80;;;10.80;;
62911;SDS011;49111;51.028;4.218;2022-08-23T02:29:57;16.77;;;10.45;;
62911;SDS011;49111;51.028;4.218;2022-08-23T02:32:23;14.82;;;10.50;;
62911;SDS011;49111;51.028;4.218;2022-08-23T02:34:50;18.00;;;10.68;;
62911;SDS011;49111;51.028;4.218;2022-08-23T02:37:16;15.32;;;10.95;;
62911;SDS011;49111;51.028;4.218;2022-08-23T02:39:42;19.00;;;10.98;;
62911;SDS011;49111;51.028;4.218;2022-08-23T02:42:09;16.35;;;10.32;;
62911;SDS011;49111;51.028;4.218;2022-08-23T02:44:37;16.67;;;10.95;;
62911;SDS011;49111;51.028;4.218;2022-08-23T02:47:03;15.00;;;10.35;;
62911;SDS011;49111;51.028;4.218;2022-08-23T02:49:32;14.25;;;10.05;;
62911;SDS011;49111;51.028;4.218;2022-08-23T02:51:58;15.68;;;11.32;;
62911;SDS011;49111;51.028;4.218;2022-08-23T02:54:24;13.65;;;8.82;;
62911;SDS011;49111;51.028;4.218;2022-08-23T02:56:50;17.92;;;11.63;;
62911;SDS011;49111;51.028;4.218;2022-08-23T02:59:16;13.93;;;9.60;;
62911;SDS011;49111;51.028;4.218;2022-08-23T03:01:43;13.68;;;10.00;;
62911;SDS011;49111;51.028;4.218;2022-08-23T03:04:32;14.95;;;10.63;;
62911;SDS011;49111;51.028;4.218;2022-08-23T03:06:58;16.00;;;10.30;;
62911;SDS011;49111;51.028;4.218;2022-08-23T03:09:24;15.50;;;11.20;;
62911;SDS011;49111;51.028;4.218;2022-08-23T03:11:50;15.00;;;10.15;;
62911;SDS011;49111;51.028;4.218;2022-08-23T03:14:18;13.15;;;9.05;;
62911;SDS011;49111;51.028;4.218;2022-08-23T03:16:45;17.35;;;10.25;;
62911;SDS011;49111;51.028;4.218;2022-08-23T03:19:11;18.10;;;10.95;;
62911;SDS011;49111;51.028;4.218;2022-08-23T03:21:37;17.40;;;11.65;;
62911;SDS011;49111;51.028;4.218;2022-08-23T03:24:03;17.70;;;9.52;;
62911;SDS011;49111;51.028;4.218;2022-08-23T03:26:30;15.57;;;10.25;;
62911;SDS011;49111;51.028;4.218;2022-08-23T03:28:55;14.82;;;9.80;;
62911;SDS011;49111;51.028;4.218;2022-08-23T03:31:24;15.73;;;10.32;;
62911;SDS011;49111;51.028;4.218;2022-08-23T03:33:59;15.35;;;10.95;;
62911;SDS011;49111;51.028;4.218;2022-08-23T03:36:25;16.25;;;10.30;;
62911;SDS011;49111;51.028;4.218;2022-08-23T03:38:51;16.30;;;10.68;;
62911;SDS011;49111;51.028;4.218;2022-08-23T03:41:18;15.63;;;10.27;;
62911;SDS011;49111;51.028;4.218;2022-08-23T03:43:43;17.88;;;10.70;;
62911;SDS011;49111;51.028;4.218;2022-08-23T03:46:10;16.92;;;11.48;;
62911;SDS011;49111;51.028;4.218;2022-08-23T03:48:49;15.18;;;10.15;;
62911;SDS011;49111;51.028;4.218;2022-08-23T03:51:16;23.08;;;11.60;;
62911;SDS011;49111;51.028;4.218;2022-08-23T03:53:44;15.25;;;10.65;;
62911;SDS011;49111;51.028;4.218;2022-08-23T03:56:29;16.13;;;11.20;;
62911;SDS011;49111;51.028;4.218;2022-08-23T03:58:58;18.58;;;12.13;;
62911;SDS011;49111;51.028;4.218;2022-08-23T04:01:26;19.85;;;12.13;;
62911;SDS011;49111;51.028;4.218;2022-08-23T04:03:52;18.63;;;11.32;;
62911;SDS011;49111;51.028;4.218;2022-08-23T04:06:17;15.95;;;10.35;;
62911;SDS011;49111;51.028;4.218;2022-08-23T04:08:44;17.67;;;10.20;;
62911;SDS011;49111;51.028;4.218;2022-08-23T04:11:11;18.73;;;10.55;;
62911;SDS011;49111;51.028;4.218;2022-08-23T04:13:47;16.30;;;11.40;;
62911;SDS011;49111;51.028;4.218;2022-08-23T04:16:13;18.38;;;9.95;;
62911;SDS011;49111;51.028;4.218;2022-08-23T04:18:39;14.95;;;10.43;;
62911;SDS011;49111;51.028;4.218;2022-08-23T04:21:08;15.98;;;9.13;;
62911;SDS011;49111;51.028;4.218;2022-08-23T04:23:39;13.57;;;9.82;;
62911;SDS011;49111;51.028;4.218;2022-08-23T04:26:05;16.55;;;10.27;;
62911;SDS011;49111;51.028;4.218;2022-08-23T04:28:33;17.15;;;10.68;;
62911;SDS011;49111;51.028;4.218;2022-08-23T04:30:59;14.05;;;9.85;;
62911;SDS011;49111;51.028;4.218;2022-08-23T04:33:28;16.85;;;11.13;;
62911;SDS011;49111;51.028;4.218;2022-08-23T04:35:59;18.20;;;11.60;;
62911;SDS011;49111;51.028;4.218;2022-08-23T04:38:26;17.02;;;9.82;;
62911;SDS011;49111;51.028;4.218;2022-08-23T04:40:55;16.13;;;10.07;;
62911;SDS011;49111;51.028;4.218;2022-08-23T04:43:40;16.73;;;9.95;;
62911;SDS011;49111;51.028;4.218;2022-08-23T04:46:10;19.67;;;10.93;;
62911;SDS011;49111;51.028;4.218;2022-08-23T04:48:40;22.80;;;11.75;;
62911;SDS011;49111;51.028;4.218;2022-08-23T04:51:06;20.25;;;11.38;;
62911;SDS011;49111;51.028;4.218;2022-08-23T04:53:35;19.85;;;11.20;;
62911;SDS011;49111;51.028;4.218;2022-08-23T04:56:21;17.73;;;11.27;;
62911;SDS011;49111;51.028;4.218;2022-08-23T04:58:48;18.52;;;10.40;;
62911;SDS011;49111;51.028;4.218;2022-08-23T05:01:14;17.45;;;10.20;;
62911;SDS011;49111;51.028;4.218;2022-08-23T05:03:42;17.65;;;12.27;;
62911;SDS011;49111;51.028;4.218;2022-08-23T05:06:08;17.02;;;11.93;;
62911;SDS011;49111;51.028;4.218;2022-08-23T05:08:38;19.08;;;10.85;;
62911;SDS011;49111;51.028;4.218;2022-08-23T05:11:06;17.52;;;11.75;;
62911;SDS011;49111;51.028;4.218;2022-08-23T05:13:33;17.95;;;11.30;;
62911;SDS011;49111;51.028;4.218;2022-08-23T05:16:01;16.52;;;11.10;;
62911;SDS011;49111;51.028;4.218;2022-08-23T05:18:31;17.17;;;11.27;;
62911;SDS011;49111;51.028;4.218;2022-08-23T05:20:58;16.33;;;11.15;;
62911;SDS011;49111;51.028;4.218;2022-08-23T05:23:25;15.88;;;10.32;;
62911;SDS011;49111;51.028;4.218;2022-08-23T05:25:58;17.52;;;11.27;;
62911;SDS011;49111;51.028;4.218;2022-08-23T05:28:32;20.23;;;11.23;;
62911;SDS011;49111;51.028;4.218;2022-08-23T05:31:01;15.45;;;11.07;;
62911;SDS011;49111;51.028;4.218;2022-08-23T05:33:36;16.00;;;11.00;;
62911;SDS011;49111;51.028;4.218;2022-08-23T05:36:04;15.77;;;11.00;;
62911;SDS011;49111;51.028;4.218;2022-08-23T05:38:31;17.75;;;10.70;;
62911;SDS011;49111;51.028;4.218;2022-08-23T05:40:58;14.25;;;9.27;;
62911;SDS011;49111;51.028;4.218;2022-08-23T05:43:28;15.35;;;10.63;;
62911;SDS011;49111;51.028;4.218;2022-08-23T05:46:09;14.60;;;10.20;;
62911;SDS011;49111;51.028;4.218;2022-08-23T05:48:44;14.32;;;9.38;;
62911;SDS011;49111;51.028;4.218;2022-08-23T05:51:15;14.25;;;9.38;;
62911;SDS011;49111;51.028;4.218;2022-08-23T05:53:43;15.65;;;8.82;;
62911;SDS011;49111;51.028;4.218;2022-08-23T05:56:12;19.10;;;10.30;;
62911;SDS011;49111;51.028;4.218;2022-08-23T05:58:46;18.95;;;10.15;;
62911;SDS011;49111;51.028;4.218;2022-08-23T06:01:13;13.82;;;9.13;;
62911;SDS011;49111;51.028;4.218;2022-08-23T06:03:41;13.90;;;9.20;;
62911;SDS011;49111;51.028;4.218;2022-08-23T06:06:08;18.58;;;9.07;;
62911;SDS011;49111;51.028;4.218;2022-08-23T06:08:35;17.27;;;9.38;;
62911;SDS011;49111;51.028;4.218;2022-08-23T06:11:04;12.75;;;8.43;;
62911;SDS011;49111;51.028;4.218;2022-08-23T06:13:38;15.23;;;9.85;;
62911;SDS011;49111;51.028;4.218;2022-08-23T06:16:05;15.27;;;10.20;;
62911;SDS011;49111;51.028;4.218;2022-08-23T06:18:31;15.02;;;10.88;;
62911;SDS011;49111;51.028;4.218;2022-08-23T06:21:09;15.52;;;9.88;;
62911;SDS011;49111;51.028;4.218;2022-08-23T06:23:41;19.47;;;9.83;;
62911;SDS011;49111;51.028;4.218;2022-08-23T06:28:57;15.25;;;8.65;;
62911;SDS011;49111;51.028;4.218;2022-08-23T06:31:28;13.80;;;9.30;;
62911;SDS011;49111;51.028;4.218;2022-08-23T06:37:21;14.60;;;9.88;;
62911;SDS011;49111;51.028;4.218;2022-08-23T06:40:19;20.65;;;10.25;;
62911;SDS011;49111;51.028;4.218;2022-08-23T06:42:48;17.80;;;8.88;;
62911;SDS011;49111;51.028;4.218;2022-08-23T06:45:19;15.20;;;8.55;;
62911;SDS011;49111;51.028;4.218;2022-08-23T06:47:49;17.17;;;7.82;;
62911;SDS011;49111;51.028;4.218;2022-08-23T06:50:15;11.82;;;7.22;;
62911;SDS011;49111;51.028;4.218;2022-08-23T06:53:01;13.68;;;7.30;;
62911;SDS011;49111;51.028;4.218;2022-08-23T06:55:49;11.80;;;6.40;;
62911;SDS011;49111;51.028;4.218;2022-08-23T06:58:26;18.02;;;7.38;;
62911;SDS011;49111;51.028;4.218;2022-08-23T07:01:27;16.35;;;6.45;;
62911;SDS011;49111;51.028;4.218;2022-08-23T07:04:09;16.35;;;7.00;;
62911;SDS011;49111;51.028;4.218;2022-08-23T07:06:54;15.68;;;6.75;;
62911;SDS011;49111;51.028;4.218;2022-08-23T07:09:21;13.05;;;5.90;;
62911;SDS011;49111;51.028;4.218;2022-08-23T07:11:47;11.95;;;5.65;;
62911;SDS011;49111;51.028;4.218;2022-08-23T07:14:14;18.10;;;6.38;;
62911;SDS011;49111;51.028;4.218;2022-08-23T07:16:52;14.50;;;6.45;;
62911;SDS011;49111;51.028;4.218;2022-08-23T07:19:21;12.40;;;6.13;;
62911;SDS011;49111;51.028;4.218;2022-08-23T07:21:51;12.10;;;6.50;;
62911;SDS011;49111;51.028;4.218;2022-08-23T07:24:18;9.63;;;5.75;;
62911;SDS011;49111;51.028;4.218;2022-08-23T07:26:46;12.23;;;5.38;;
62911;SDS011;49111;51.028;4.218;2022-08-23T07:29:13;10.50;;;5.07;;
62911;SDS011;49111;51.028;4.218;2022-08-23T07:31:41;11.95;;;6.40;;
62911;SDS011;49111;51.028;4.218;2022-08-23T07:34:13;11.02;;;5.35;;
62911;SDS011;49111;51.028;4.218;2022-08-23T07:36:41;12.80;;;5.85;;
62911;SDS011;49111;51.028;4.218;2022-08-23T07:39:09;12.80;;;6.00;;
62911;SDS011;49111;51.028;4.218;2022-08-23T07:41:36;12.15;;;5.47;;
62911;SDS011;49111;51.028;4.218;2022-08-23T07:44:04;8.57;;;4.15;;
62911;SDS011;49111;51.028;4.218;2022-08-23T07:46:33;10.10;;;4.20;;
62911;SDS011;49111;51.028;4.218;2022-08-23T07:49:01;7.55;;;4.45;;
62911;SDS011;49111;51.028;4.218;2022-08-23T07:51:36;11.60;;;4.60;;
62911;SDS011;49111;51.028;4.218;2022-08-23T07:54:05;8.20;;;3.63;;
62911;SDS011;49111;51.028;4.218;2022-08-23T07:56:35;8.38;;;3.75;;
62911;SDS011;49111;51.028;4.218;2022-08-23T07:59:12;8.50;;;4.03;;
62911;SDS011;49111;51.028;4.218;2022-08-23T08:01:46;11.07;;;4.15;;
62911;SDS011;49111;51.028;4.218;2022-08-23T08:04:12;8.65;;;4.70;;
62911;SDS011;49111;51.028;4.218;2022-08-23T08:06:46;8.10;;;3.80;;
62911;SDS011;49111;51.028;4.218;2022-08-23T08:09:14;7.05;;;3.35;;
62911;SDS011;49111;51.028;4.218;2022-08-23T08:11:43;8.07;;;4.00;;
62911;SDS011;49111;51.028;4.218;2022-08-23T08:14:13;8.13;;;3.40;;
62911;SDS011;49111;51.028;4.218;2022-08-23T08:16:48;9.45;;;3.92;;
62911;SDS011;49111;51.028;4.218;2022-08-23T08:19:21;32.22;;;4.90;;
62911;SDS011;49111;51.028;4.218;2022-08-23T08:22:19;9.13;;;3.85;;
62911;SDS011;49111;51.028;4.218;2022-08-23T08:25:04;12.55;;;4.43;;
62911;SDS011;49111;51.028;4.218;2022-08-23T08:27:31;9.15;;;3.97;;
62911;SDS011;49111;51.028;4.218;2022-08-23T08:29:57;10.02;;;3.33;;
62911;SDS011;49111;51.028;4.218;2022-08-23T08:32:23;7.97;;;2.63;;
62911;SDS011;49111;51.028;4.218;2022-08-23T08:34:49;7.90;;;3.45;;
62911;SDS011;49111;51.028;4.218;2022-08-23T08:37:15;7.22;;;3.03;;
62911;SDS011;49111;51.028;4.218;2022-08-23T08:39:41;5.78;;;3.30;;
62911;SDS011;49111;51.028;4.218;2022-08-23T08:47:39;9.20;;;4.00;;
62911;SDS011;49111;51.028;4.218;2022-08-23T08:52:40;6.30;;;3.35;;
62911;SDS011;49111;51.028;4.218;2022-08-23T08:55:32;13.85;;;4.35;;
62911;SDS011;49111;51.028;4.218;2022-08-23T08:58:03;7.97;;;4.30;;
62911;SDS011;49111;51.028;4.218;2022-08-23T09:00:32;10.20;;;3.42;;
62911;SDS011;49111;51.028;4.218;2022-08-23T09:03:11;8.23;;;3.67;;
62911;SDS011;49111;51.028;4.218;2022-08-23T09:05:44;10.50;;;3.35;;
62911;SDS011;49111;51.028;4.218;2022-08-23T09:10:57;15.55;;;4.18;;
62911;SDS011;49111;51.028;4.218;2022-08-23T09:19:00;12.65;;;4.30;;
62911;SDS011;49111;51.028;4.218;2022-08-23T09:21:39;7.70;;;3.70;;
62911;SDS011;49111;51.028;4.218;2022-08-23T09:24:12;8.07;;;3.97;;
62911;SDS011;49111;51.028;4.218;2022-08-23T09:26:48;12.95;;;4.60;;
62911;SDS011;49111;51.028;4.218;2022-08-23T09:29:23;10.35;;;4.50;;
62911;SDS011;49111;51.028;4.218;2022-08-23T09:31:55;10.20;;;5.72;;
62911;SDS011;49111;51.028;4.218;2022-08-23T09:39:43;6.05;;;3.83;;
62911;SDS011;49111;51.028;4.218;2022-08-23T09:45:29;12.52;;;5.03;;
62911;SDS011;49111;51.028;4.218;2022-08-23T09:48:00;8.00;;;4.10;;
62911;SDS011;49111;51.028;4.218;2022-08-23T09:50:31;10.15;;;4.47;;
62911;SDS011;49111;51.028;4.218;2022-08-23T09:55:35;6.53;;;3.58;;
62911;SDS011;49111;51.028;4.218;2022-08-23T10:01:10;5.20;;;2.67;;
62911;SDS011;49111;51.028;4.218;2022-08-23T10:06:46;4.95;;;2.58;;
62911;SDS011;49111;51.028;4.218;2022-08-23T10:09:31;9.40;;;3.40;;
62911;SDS011;49111;51.028;4.218;2022-08-23T10:12:01;7.10;;;3.72;;
62911;SDS011;49111;51.028;4.218;2022-08-23T10:14:28;6.68;;;3.35;;
62911;SDS011;49111;51.028;4.218;2022-08-23T10:25:06;4.57;;;2.30;;
62911;SDS011;49111;51.028;4.218;2022-08-23T10:27:50;4.45;;;2.30;;
62911;SDS011;49111;51.028;4.218;2022-08-23T10:30:56;4.57;;;1.90;;
62911;SDS011;49111;51.028;4.218;2022-08-23T10:36:13;2.45;;;1.20;;
62911;SDS011;49111;51.028;4.218;2022-08-23T10:38:45;5.10;;;1.92;;
62911;SDS011;49111;51.028;4.218;2022-08-23T10:41:29;4.53;;;1.73;;
62911;SDS011;49111;51.028;4.218;2022-08-23T10:44:22;1.95;;;1.20;;
62911;SDS011;49111;51.028;4.218;2022-08-23T10:49:42;2.83;;;1.40;;
62911;SDS011;49111;51.028;4.218;2022-08-23T10:52:14;2.20;;;1.20;;
62911;SDS011;49111;51.028;4.218;2022-08-23T10:58:01;4.65;;;1.90;;
62911;SDS011;49111;51.028;4.218;2022-08-23T11:00:29;2.90;;;1.50;;
62911;SDS011;49111;51.028;4.218;2022-08-23T11:03:20;3.50;;;1.23;;
62911;SDS011;49111;51.028;4.218;2022-08-23T11:14:12;6.40;;;1.80;;
62911;SDS011;49111;51.028;4.218;2022-08-23T11:16:55;3.42;;;1.42;;
62911;SDS011;49111;51.028;4.218;2022-08-23T11:22:26;2.60;;;0.90;;
62911;SDS011;49111;51.028;4.218;2022-08-23T11:27:36;3.50;;;1.00;;
62911;SDS011;49111;51.028;4.218;2022-08-23T11:30:48;2.92;;;1.30;;
62911;SDS011;49111;51.028;4.218;2022-08-23T11:35:47;3.08;;;0.88;;
62911;SDS011;49111;51.028;4.218;2022-08-23T11:38:16;2.47;;;1.10;;
62911;SDS011;49111;51.028;4.218;2022-08-23T11:43:44;1.40;;;0.90;;
62911;SDS011;49111;51.028;4.218;2022-08-23T11:50:16;2.60;;;1.05;;
62911;SDS011;49111;51.028;4.218;2022-08-23T11:52:33;2.50;;;1.10;;
62911;SDS011;49111;51.028;4.218;2022-08-23T11:55:33;1.83;;;1.30;;
62911;SDS011;49111;51.028;4.218;2022-08-23T11:58:20;3.22;;;1.25;;
62911;SDS011;49111;51.028;4.218;2022-08-23T12:06:14;2.75;;;1.35;;
62911;SDS011;49111;51.028;4.218;2022-08-23T12:14:34;4.30;;;1.85;;
62911;SDS011;49111;51.028;4.218;2022-08-23T12:17:02;2.58;;;1.83;;
62911;SDS011;49111;51.028;4.218;2022-08-23T12:19:51;3.38;;;1.65;;
62911;SDS011;49111;51.028;4.218;2022-08-23T12:22:24;2.03;;;1.42;;
62911;SDS011;49111;51.028;4.218;2022-08-23T12:24:58;1.70;;;1.45;;
62911;SDS011;49111;51.028;4.218;2022-08-23T12:30:29;2.85;;;1.80;;
62911;SDS011;49111;51.028;4.218;2022-08-23T12:33:19;3.67;;;1.63;;
62911;SDS011;49111;51.028;4.218;2022-08-23T12:36:09;3.15;;;1.85;;
62911;SDS011;49111;51.028;4.218;2022-08-23T12:38:49;2.58;;;1.23;;
62911;SDS011;49111;51.028;4.218;2022-08-23T12:48:56;0.70;;;0.68;;
62911;SDS011;49111;51.028;4.218;2022-08-23T12:51:22;1.88;;;0.90;;
62911;SDS011;49111;51.028;4.218;2022-08-23T12:53:48;1.38;;;0.88;;
62911;SDS011;49111;51.028;4.218;2022-08-23T12:56:18;1.85;;;0.80;;
62911;SDS011;49111;51.028;4.218;2022-08-23T12:58:48;0.90;;;0.70;;
62911;SDS011;49111;51.028;4.218;2022-08-23T13:01:21;1.95;;;1.15;;
62911;SDS011;49111;51.028;4.218;2022-08-23T13:04:03;1.92;;;0.80;;
62911;SDS011;49111;51.028;4.218;2022-08-23T13:06:34;2.95;;;1.00;;
62911;SDS011;49111;51.028;4.218;2022-08-23T13:09:18;2.33;;;1.02;;
62911;SDS011;49111;51.028;4.218;2022-08-23T13:11:49;1.00;;;0.90;;
62911;SDS011;49111;51.028;4.218;2022-08-23T13:14:24;5.22;;;1.10;;
62911;SDS011;49111;51.028;4.218;2022-08-23T13:16:50;1.25;;;1.08;;
62911;SDS011;49111;51.028;4.218;2022-08-23T13:19:27;2.00;;;0.80;;
62911;SDS011;49111;51.028;4.218;2022-08-23T13:25:08;1.83;;;1.50;;
62911;SDS011;49111;51.028;4.218;2022-08-23T13:32:42;1.50;;;1.20;;
62911;SDS011;49111;51.028;4.218;2022-08-23T13:51:35;1.60;;;1.50;;
62911;SDS011;49111;51.028;4.218;2022-08-23T13:54:05;3.75;;;1.40;;
62911;SDS011;49111;51.028;4.218;2022-08-23T13:56:35;3.75;;;1.10;;
62911;SDS011;49111;51.028;4.218;2022-08-23T13:59:04;2.25;;;0.70;;
62911;SDS011;49111;51.028;4.218;2022-08-23T14:01:41;3.42;;;1.20;;
62911;SDS011;49111;51.028;4.218;2022-08-23T14:04:07;1.20;;;1.00;;
62911;SDS011;49111;51.028;4.218;2022-08-23T14:06:33;1.98;;;0.70;;
62911;SDS011;49111;51.028;4.218;2022-08-23T14:08:58;1.75;;;1.08;;
62911;SDS011;49111;51.028;4.218;2022-08-23T14:11:24;1.10;;;1.00;;
62911;SDS011;49111;51.028;4.218;2022-08-23T14:13:50;1.65;;;1.10;;
62911;SDS011;49111;51.028;4.218;2022-08-23T14:16:23;1.63;;;1.15;;
62911;SDS011;49111;51.028;4.218;2022-08-23T14:18:51;1.15;;;0.90;;
62911;SDS011;49111;51.028;4.218;2022-08-23T14:21:17;2.15;;;1.20;;
62911;SDS011;49111;51.028;4.218;2022-08-23T14:23:43;3.03;;;1.02;;
62911;SDS011;49111;51.028;4.218;2022-08-23T14:26:09;2.67;;;1.10;;
62911;SDS011;49111;51.028;4.218;2022-08-23T14:28:40;2.05;;;1.10;;
62911;SDS011;49111;51.028;4.218;2022-08-23T14:31:05;3.50;;;1.30;;
62911;SDS011;49111;51.028;4.218;2022-08-23T14:33:31;1.77;;;0.90;;
62911;SDS011;49111;51.028;4.218;2022-08-23T14:35:57;0.98;;;0.93;;
62911;SDS011;49111;51.028;4.218;2022-08-23T14:38:23;2.17;;;0.90;;
62911;SDS011;49111;51.028;4.218;2022-08-23T14:40:50;0.88;;;0.85;;
62911;SDS011;49111;51.028;4.218;2022-08-23T14:43:21;2.33;;;1.17;;
62911;SDS011;49111;51.028;4.218;2022-08-23T14:45:48;1.02;;;0.88;;
62911;SDS011;49111;51.028;4.218;2022-08-23T14:48:14;2.13;;;0.90;;
62911;SDS011;49111;51.028;4.218;2022-08-23T14:50:40;2.25;;;1.00;;
62911;SDS011;49111;51.028;4.218;2022-08-23T14:53:06;1.10;;;1.00;;
62911;SDS011;49111;51.028;4.218;2022-08-23T14:55:32;1.45;;;0.80;;
62911;SDS011;49111;51.028;4.218;2022-08-23T14:57:58;1.83;;;1.00;;
62911;SDS011;49111;51.028;4.218;2022-08-23T15:00:24;3.55;;;1.27;;
62911;SDS011;49111;51.028;4.218;2022-08-23T15:02:50;1.20;;;0.90;;
62911;SDS011;49111;51.028;4.218;2022-08-23T15:05:17;3.88;;;1.27;;
62911;SDS011;49111;51.028;4.218;2022-08-23T15:07:43;2.08;;;0.90;;
62911;SDS011;49111;51.028;4.218;2022-08-23T15:10:10;2.15;;;1.20;;
62911;SDS011;49111;51.028;4.218;2022-08-23T15:12:37;1.92;;;1.05;;
62911;SDS011;49111;51.028;4.218;2022-08-23T15:15:04;1.77;;;1.00;;
62911;SDS011;49111;51.028;4.218;2022-08-23T15:17:37;1.42;;;1.10;;
62911;SDS011;49111;51.028;4.218;2022-08-23T15:20:18;3.30;;;1.20;;
62911;SDS011;49111;51.028;4.218;2022-08-23T15:22:45;1.25;;;0.90;;
62911;SDS011;49111;51.028;4.218;2022-08-23T15:25:12;3.97;;;1.40;;
62911;SDS011;49111;51.028;4.218;2022-08-23T15:27:40;2.53;;;1.02;;
62911;SDS011;49111;51.028;4.218;2022-08-23T15:30:07;1.70;;;1.10;;
62911;SDS011;49111;51.028;4.218;2022-08-23T15:32:36;2.53;;;1.20;;
62911;SDS011;49111;51.028;4.218;2022-08-23T15:35:03;2.60;;;1.20;;
62911;SDS011;49111;51.028;4.218;2022-08-23T15:37:29;1.67;;;1.20;;
62911;SDS011;49111;51.028;4.218;2022-08-23T15:39:55;1.10;;;1.00;;
62911;SDS011;49111;51.028;4.218;2022-08-23T15:42:21;1.50;;;1.10;;
62911;SDS011;49111;51.028;4.218;2022-08-23T15:44:47;4.53;;;1.40;;
62911;SDS011;49111;51.028;4.218;2022-08-23T15:47:21;1.83;;;1.08;;
62911;SDS011;49111;51.028;4.218;2022-08-23T15:49:50;1.83;;;1.65;;
62911;SDS011;49111;51.028;4.218;2022-08-23T15:52:16;1.83;;;1.30;;
62911;SDS011;49111;51.028;4.218;2022-08-23T15:54:42;1.92;;;1.20;;
62911;SDS011;49111;51.028;4.218;2022-08-23T15:57:12;1.10;;;1.00;;
62911;SDS011;49111;51.028;4.218;2022-08-23T15:59:44;1.55;;;1.13;;
62911;SDS011;49111;51.028;4.218;2022-08-23T16:02:10;3.33;;;1.48;;
62911;SDS011;49111;51.028;4.218;2022-08-23T16:04:36;2.13;;;1.10;;
62911;SDS011;49111;51.028;4.218;2022-08-23T16:07:03;2.25;;;1.45;;
62911;SDS011;49111;51.028;4.218;2022-08-23T16:09:31;2.13;;;1.50;;
62911;SDS011;49111;51.028;4.218;2022-08-23T16:11:58;1.52;;;1.13;;
62911;SDS011;49111;51.028;4.218;2022-08-23T16:14:24;3.50;;;1.27;;
62911;SDS011;49111;51.028;4.218;2022-08-23T16:16:50;1.88;;;1.40;;
62911;SDS011;49111;51.028;4.218;2022-08-23T16:19:16;3.55;;;1.40;;
62911;SDS011;49111;51.028;4.218;2022-08-23T16:21:42;1.77;;;1.20;;
62911;SDS011;49111;51.028;4.218;2022-08-23T16:24:08;2.50;;;1.48;;
62911;SDS011;49111;51.028;4.218;2022-08-23T16:26:37;1.50;;;1.25;;
62911;SDS011;49111;51.028;4.218;2022-08-23T16:29:05;1.55;;;1.20;;
62911;SDS011;49111;51.028;4.218;2022-08-23T16:31:33;2.03;;;1.30;;
62911;SDS011;49111;51.028;4.218;2022-08-23T16:33:59;1.27;;;1.10;;
62911;SDS011;49111;51.028;4.218;2022-08-23T16:36:28;1.13;;;1.00;;
62911;SDS011;49111;51.028;4.218;2022-08-23T16:38:55;2.92;;;1.42;;
62911;SDS011;49111;51.028;4.218;2022-08-23T16:41:21;3.03;;;1.35;;
62911;SDS011;49111;51.028;4.218;2022-08-23T16:43:50;1.35;;;1.00;;
62911;SDS011;49111;51.028;4.218;2022-08-23T16:46:16;2.13;;;1.50;;
62911;SDS011;49111;51.028;4.218;2022-08-23T16:48:49;3.10;;;1.42;;
62911;SDS011;49111;51.028;4.218;2022-08-23T16:51:15;1.65;;;1.48;;
62911;SDS011;49111;51.028;4.218;2022-08-23T16:53:42;2.00;;;1.35;;
62911;SDS011;49111;51.028;4.218;2022-08-23T16:56:08;1.67;;;1.10;;
62911;SDS011;49111;51.028;4.218;2022-08-23T16:58:35;1.58;;;1.17;;
62911;SDS011;49111;51.028;4.218;2022-08-23T17:01:02;1.40;;;1.15;;
62911;SDS011;49111;51.028;4.218;2022-08-23T17:03:28;1.35;;;1.25;;
62911;SDS011;49111;51.028;4.218;2022-08-23T17:05:54;2.58;;;1.27;;
62911;SDS011;49111;51.028;4.218;2022-08-23T17:08:20;2.58;;;1.20;;
62911;SDS011;49111;51.028;4.218;2022-08-23T17:10:46;1.85;;;1.48;;
62911;SDS011;49111;51.028;4.218;2022-08-23T17:13:13;3.15;;;1.30;;